sensor_id;sensor_type;location;lat;lon;timestamp;pressure;altitude;pressure_sealevel;temperature;humidity
41624;BME280;27319;50.306;18.926;2023-03-12T00:00:43;97501.72;;;0.08;86.21
41624;BME280;27319;50.306;18.926;2023-03-12T00:04:44;97489.41;;;-0.13;87.20
41624;BME280;27319;50.306;18.926;2023-03-12T00:08:45;97499.81;;;-0.01;87.25
41624;BME280;27319;50.306;18.926;2023-03-12T00:11:50;97509.28;;;-0.10;87.08
41624;BME280;27319;50.306;18.926;2023-03-12T00:14:51;97510.00;;;0.03;86.33
41624;BME280;27319;50.306;18.926;2023-03-12T00:17:51;97520.41;;;-0.06;86.91
41624;BME280;27319;50.306;18.926;2023-03-12T00:20:53;97509.41;;;-0.11;87.35
41624;BME280;27319;50.306;18.926;2023-03-12T00:23:54;97519.22;;;-0.02;87.48
41624;BME280;27319;50.306;18.926;2023-03-12T00:26:56;97509.75;;;-0.27;86.90
41624;BME280;27319;50.306;18.926;2023-03-12T00:29:56;97519.34;;;-0.15;87.45
41624;BME280;27319;50.306;18.926;2023-03-12T00:32:57;97522.59;;;-0.11;87.47
41624;BME280;27319;50.306;18.926;2023-03-12T00:35:59;97536.38;;;-0.18;88.22
41624;BME280;27319;50.306;18.926;2023-03-12T00:39:01;97529.56;;;-0.10;87.70
41624;BME280;27319;50.306;18.926;2023-03-12T00:42:01;97536.88;;;-0.13;87.74
41624;BME280;27319;50.306;18.926;2023-03-12T00:45:03;97529.19;;;-0.06;87.61
41624;BME280;27319;50.306;18.926;2023-03-12T00:48:03;97537.09;;;-0.17;87.38
41624;BME280;27319;50.306;18.926;2023-03-12T00:51:05;97539.13;;;-0.20;87.81
41624;BME280;27319;50.306;18.926;2023-03-12T00:54:06;97545.13;;;-0.18;87.16
41624;BME280;27319;50.306;18.926;2023-03-12T00:57:27;97540.91;;;-0.21;87.48
41624;BME280;27319;50.306;18.926;2023-03-12T01:01:23;97543.44;;;-0.19;87.68
41624;BME280;27319;50.306;18.926;2023-03-12T01:04:24;97548.22;;;-0.24;88.27
41624;BME280;27319;50.306;18.926;2023-03-12T01:07:45;97542.84;;;-0.22;88.73
41624;BME280;27319;50.306;18.926;2023-03-12T01:11:46;97531.13;;;-0.08;87.87
41624;BME280;27319;50.306;18.926;2023-03-12T01:15:47;97533.75;;;-0.18;87.56
41624;BME280;27319;50.306;18.926;2023-03-12T01:19:28;97529.78;;;-0.24;87.60
41624;BME280;27319;50.306;18.926;2023-03-12T01:22:29;97519.72;;;-0.08;87.12
41624;BME280;27319;50.306;18.926;2023-03-12T01:25:30;97523.69;;;-0.03;87.28
41624;BME280;27319;50.306;18.926;2023-03-12T01:28:53;97522.47;;;-0.21;87.47
41624;BME280;27319;50.306;18.926;2023-03-12T01:32:34;97525.72;;;-0.17;87.20
41624;BME280;27319;50.306;18.926;2023-03-12T01:35:39;97527.88;;;-0.22;87.17
41624;BME280;27319;50.306;18.926;2023-03-12T01:38:40;97532.91;;;-0.19;87.04
41624;BME280;27319;50.306;18.926;2023-03-12T01:41:41;97526.78;;;-0.19;87.61
41624;BME280;27319;50.306;18.926;2023-03-12T01:45:03;97522.22;;;-0.07;87.38
41624;BME280;27319;50.306;18.926;2023-03-12T01:48:03;97534.91;;;-0.33;87.68
41624;BME280;27319;50.306;18.926;2023-03-12T01:51:07;97539.63;;;-0.15;87.15
41624;BME280;27319;50.306;18.926;2023-03-12T01:54:16;97529.88;;;-0.15;87.16
41624;BME280;27319;50.306;18.926;2023-03-12T01:57:22;97532.28;;;-0.22;87.59
41624;BME280;27319;50.306;18.926;2023-03-12T02:00:26;97538.31;;;-0.31;87.45
41624;BME280;27319;50.306;18.926;2023-03-12T02:03:28;97542.59;;;-0.41;87.69
41624;BME280;27319;50.306;18.926;2023-03-12T02:06:53;97544.97;;;-0.38;87.36
41624;BME280;27319;50.306;18.926;2023-03-12T02:10:31;97546.22;;;-0.31;87.31
41624;BME280;27319;50.306;18.926;2023-03-12T02:13:52;97553.72;;;-0.49;87.48
41624;BME280;27319;50.306;18.926;2023-03-12T02:17:53;97547.69;;;-0.73;88.34
41624;BME280;27319;50.306;18.926;2023-03-12T02:21:13;97546.84;;;-0.73;88.04
41624;BME280;27319;50.306;18.926;2023-03-12T02:28:00;97559.69;;;-0.69;88.08
41624;BME280;27319;50.306;18.926;2023-03-12T02:31:03;97567.25;;;-0.53;87.53
41624;BME280;27319;50.306;18.926;2023-03-12T02:34:23;97574.16;;;-0.63;87.87
41624;BME280;27319;50.306;18.926;2023-03-12T02:38:30;97576.56;;;-0.71;87.38
41624;BME280;27319;50.306;18.926;2023-03-12T02:41:35;97578.94;;;-0.68;87.92
41624;BME280;27319;50.306;18.926;2023-03-12T02:44:37;97588.78;;;-0.70;87.68
41624;BME280;27319;50.306;18.926;2023-03-12T02:47:58;97594.22;;;-0.84;88.25
41624;BME280;27319;50.306;18.926;2023-03-12T02:51:41;97593.78;;;-0.67;87.89
41624;BME280;27319;50.306;18.926;2023-03-12T02:54:42;97595.94;;;-0.72;87.42
41624;BME280;27319;50.306;18.926;2023-03-12T02:57:43;97596.69;;;-0.94;87.68
41624;BME280;27319;50.306;18.926;2023-03-12T03:01:03;97595.16;;;-0.85;87.96
41624;BME280;27319;50.306;18.926;2023-03-12T03:05:04;97608.00;;;-0.81;87.57
41624;BME280;27319;50.306;18.926;2023-03-12T03:09:05;97606.56;;;-1.08;87.58
41624;BME280;27319;50.306;18.926;2023-03-12T03:12:46;97610.66;;;-1.04;87.60
41624;BME280;27319;50.306;18.926;2023-03-12T03:15:47;97616.59;;;-1.13;87.56
41624;BME280;27319;50.306;18.926;2023-03-12T03:18:48;97613.50;;;-1.07;87.90
41624;BME280;27319;50.306;18.926;2023-03-12T03:22:09;97615.34;;;-1.20;86.98
41624;BME280;27319;50.306;18.926;2023-03-12T03:25:51;97632.19;;;-1.10;88.01
41624;BME280;27319;50.306;18.926;2023-03-12T03:28:52;97629.88;;;-1.15;87.92
41624;BME280;27319;50.306;18.926;2023-03-12T03:31:53;97632.22;;;-0.99;87.15
41624;BME280;27319;50.306;18.926;2023-03-12T03:35:14;97626.22;;;-1.01;87.42
41624;BME280;27319;50.306;18.926;2023-03-12T03:38:55;97640.28;;;-0.90;86.04
41624;BME280;27319;50.306;18.926;2023-03-12T03:41:55;97640.13;;;-0.99;86.77
41624;BME280;27319;50.306;18.926;2023-03-12T03:44:57;97635.75;;;-1.11;87.08
41624;BME280;27319;50.306;18.926;2023-03-12T03:47:57;97649.66;;;-1.09;86.90
41624;BME280;27319;50.306;18.926;2023-03-12T03:50:59;97649.81;;;-1.00;86.62
41624;BME280;27319;50.306;18.926;2023-03-12T03:54:21;97645.41;;;-0.99;86.31
41624;BME280;27319;50.306;18.926;2023-03-12T03:58:21;97645.59;;;-1.02;85.39
41624;BME280;27319;50.306;18.926;2023-03-12T04:02:02;97639.97;;;-1.09;86.34
41624;BME280;27319;50.306;18.926;2023-03-12T04:05:03;97647.19;;;-1.23;85.54
41624;BME280;27319;50.306;18.926;2023-03-12T04:08:05;97640.78;;;-1.08;86.12
41624;BME280;27319;50.306;18.926;2023-03-12T04:11:26;97647.56;;;-1.17;85.45
41624;BME280;27319;50.306;18.926;2023-03-12T04:15:07;97646.31;;;-1.24;85.83
41624;BME280;27319;50.306;18.926;2023-03-12T04:18:27;97654.75;;;-1.19;84.93
41624;BME280;27319;50.306;18.926;2023-03-12T04:21:48;97642.34;;;-1.29;86.05
41624;BME280;27319;50.306;18.926;2023-03-12T04:24:49;97657.28;;;-1.17;85.30
41624;BME280;27319;50.306;18.926;2023-03-12T04:27:50;97655.97;;;-1.12;84.22
41624;BME280;27319;50.306;18.926;2023-03-12T04:31:14;97656.97;;;-1.25;84.78
41624;BME280;27319;50.306;18.926;2023-03-12T04:35:15;97666.78;;;-1.27;84.25
41624;BME280;27319;50.306;18.926;2023-03-12T04:38:56;97663.53;;;-1.31;84.41
41624;BME280;27319;50.306;18.926;2023-03-12T04:42:16;97671.00;;;-1.37;85.09
41624;BME280;27319;50.306;18.926;2023-03-12T04:45:58;97671.19;;;-1.28;84.07
41624;BME280;27319;50.306;18.926;2023-03-12T04:48:59;97676.16;;;-1.36;84.84
41624;BME280;27319;50.306;18.926;2023-03-12T04:52:02;97677.13;;;-1.37;83.76
41624;BME280;27319;50.306;18.926;2023-03-12T04:55:03;97680.72;;;-1.38;84.38
41624;BME280;27319;50.306;18.926;2023-03-12T04:58:25;97682.16;;;-1.34;84.02
41624;BME280;27319;50.306;18.926;2023-03-12T05:02:25;97687.66;;;-1.37;83.34
41624;BME280;27319;50.306;18.926;2023-03-12T05:06:07;97685.41;;;-1.30;83.83
41624;BME280;27319;50.306;18.926;2023-03-12T05:09:08;97690.56;;;-1.29;83.48
41624;BME280;27319;50.306;18.926;2023-03-12T05:12:09;97693.53;;;-1.33;83.80
41624;BME280;27319;50.306;18.926;2023-03-12T05:15:10;97689.97;;;-1.45;83.86
41624;BME280;27319;50.306;18.926;2023-03-12T05:18:12;97693.91;;;-1.27;83.32
41624;BME280;27319;50.306;18.926;2023-03-12T05:21:32;97690.38;;;-1.38;83.17
41624;BME280;27319;50.306;18.926;2023-03-12T05:25:13;97698.97;;;-1.24;83.15
41624;BME280;27319;50.306;18.926;2023-03-12T05:28:14;97702.16;;;-1.31;83.34
41624;BME280;27319;50.306;18.926;2023-03-12T05:31:16;97702.13;;;-1.19;82.49
41624;BME280;27319;50.306;18.926;2023-03-12T05:34:16;97708.22;;;-1.18;82.81
41624;BME280;27319;50.306;18.926;2023-03-12T05:37:18;97701.28;;;-1.19;81.87
41624;BME280;27319;50.306;18.926;2023-03-12T05:40:18;97706.78;;;-1.22;81.89
41624;BME280;27319;50.306;18.926;2023-03-12T05:43:20;97712.66;;;-1.19;82.23
41624;BME280;27319;50.306;18.926;2023-03-12T05:46:21;97727.84;;;-1.22;81.87
41624;BME280;27319;50.306;18.926;2023-03-12T05:49:23;97725.72;;;-1.17;82.14
41624;BME280;27319;50.306;18.926;2023-03-12T05:52:23;97718.66;;;-1.17;80.96
41624;BME280;27319;50.306;18.926;2023-03-12T05:55:25;97732.00;;;-1.07;81.44
41624;BME280;27319;50.306;18.926;2023-03-12T05:58:46;97746.53;;;-1.14;81.66
41624;BME280;27319;50.306;18.926;2023-03-12T06:02:03;97728.88;;;-1.25;82.17
41624;BME280;27319;50.306;18.926;2023-03-12T06:05:04;97741.91;;;-1.11;81.00
41624;BME280;27319;50.306;18.926;2023-03-12T06:08:25;97749.19;;;-1.14;81.92
41624;BME280;27319;50.306;18.926;2023-03-12T06:12:26;97759.47;;;-0.99;80.31
41624;BME280;27319;50.306;18.926;2023-03-12T06:16:27;97765.66;;;-0.87;80.78
41624;BME280;27319;50.306;18.926;2023-03-12T06:20:28;97766.63;;;-0.88;80.75
41624;BME280;27319;50.306;18.926;2023-03-12T06:24:09;97777.00;;;-0.87;80.98
41624;BME280;27319;50.306;18.926;2023-03-12T06:27:10;97768.19;;;-0.86;78.81
41624;BME280;27319;50.306;18.926;2023-03-12T06:30:11;97771.38;;;-0.93;79.14
41624;BME280;27319;50.306;18.926;2023-03-12T06:33:12;97769.44;;;-0.91;80.38
41624;BME280;27319;50.306;18.926;2023-03-12T06:36:14;97781.47;;;-0.87;80.10
41624;BME280;27319;50.306;18.926;2023-03-12T06:39:14;97777.78;;;-0.61;79.20
41624;BME280;27319;50.306;18.926;2023-03-12T06:42:35;97777.91;;;-0.63;78.65
41624;BME280;27319;50.306;18.926;2023-03-12T06:46:18;97786.44;;;-0.59;78.29
41624;BME280;27319;50.306;18.926;2023-03-12T06:49:41;97792.09;;;-0.53;77.68
41624;BME280;27319;50.306;18.926;2023-03-12T06:53:22;97794.47;;;-0.73;79.30
41624;BME280;27319;50.306;18.926;2023-03-12T06:56:25;97797.63;;;-0.68;79.39
41624;BME280;27319;50.306;18.926;2023-03-12T06:59:26;97799.63;;;-0.59;78.07
41624;BME280;27319;50.306;18.926;2023-03-12T07:02:28;97793.09;;;-0.43;77.87
41624;BME280;27319;50.306;18.926;2023-03-12T07:05:49;97796.22;;;-0.25;76.25
41624;BME280;27319;50.306;18.926;2023-03-12T07:09:50;97802.09;;;-0.22;76.12
41624;BME280;27319;50.306;18.926;2023-03-12T07:13:39;97803.53;;;-0.18;76.74
41624;BME280;27319;50.306;18.926;2023-03-12T07:17:40;97797.47;;;-0.31;77.47
41624;BME280;27319;50.306;18.926;2023-03-12T07:21:41;97810.25;;;-0.38;76.54
41624;BME280;27319;50.306;18.926;2023-03-12T07:25:42;97810.22;;;-0.48;77.63
41624;BME280;27319;50.306;18.926;2023-03-12T07:29:43;97804.38;;;-0.17;76.22
41624;BME280;27319;50.306;18.926;2023-03-12T07:33:24;97799.00;;;-0.16;75.63
41624;BME280;27319;50.306;18.926;2023-03-12T07:36:25;97800.13;;;-0.08;75.27
41624;BME280;27319;50.306;18.926;2023-03-12T07:39:26;97806.97;;;-0.05;76.28
41624;BME280;27319;50.306;18.926;2023-03-12T07:42:27;97807.00;;;0.06;75.67
41624;BME280;27319;50.306;18.926;2023-03-12T07:45:32;97816.00;;;0.03;75.49
41624;BME280;27319;50.306;18.926;2023-03-12T07:48:32;97804.13;;;0.09;76.00
41624;BME280;27319;50.306;18.926;2023-03-12T07:51:34;97805.94;;;0.19;75.02
41624;BME280;27319;50.306;18.926;2023-03-12T07:54:35;97807.25;;;0.14;75.30
41624;BME280;27319;50.306;18.926;2023-03-12T07:57:56;97802.75;;;0.27;76.01
41624;BME280;27319;50.306;18.926;2023-03-12T08:01:57;97816.56;;;0.41;74.68
41624;BME280;27319;50.306;18.926;2023-03-12T08:05:21;97812.72;;;0.34;74.87
41624;BME280;27319;50.306;18.926;2023-03-12T08:09:22;97818.13;;;0.44;74.77
41624;BME280;27319;50.306;18.926;2023-03-12T08:13:23;97829.09;;;0.50;73.93
41624;BME280;27319;50.306;18.926;2023-03-12T08:17:24;97820.22;;;0.62;74.11
41624;BME280;27319;50.306;18.926;2023-03-12T08:21:25;97827.56;;;0.70;72.57
41624;BME280;27319;50.306;18.926;2023-03-12T08:25:26;97827.22;;;0.74;72.79
41624;BME280;27319;50.306;18.926;2023-03-12T08:29:27;97825.88;;;0.80;72.29
41624;BME280;27319;50.306;18.926;2023-03-12T08:33:27;97822.66;;;0.87;72.14
41624;BME280;27319;50.306;18.926;2023-03-12T08:37:29;97828.66;;;1.00;72.17
41624;BME280;27319;50.306;18.926;2023-03-12T08:41:29;97826.50;;;1.05;72.43
41624;BME280;27319;50.306;18.926;2023-03-12T08:45:30;97821.22;;;1.05;72.83
41624;BME280;27319;50.306;18.926;2023-03-12T08:49:11;97827.25;;;1.18;72.52
41624;BME280;27319;50.306;18.926;2023-03-12T08:52:12;97835.16;;;1.29;72.29
41624;BME280;27319;50.306;18.926;2023-03-12T08:55:13;97831.44;;;1.21;72.98
41624;BME280;27319;50.306;18.926;2023-03-12T08:58:15;97839.00;;;1.25;72.75
41624;BME280;27319;50.306;18.926;2023-03-12T09:01:16;97839.69;;;1.49;71.26
41624;BME280;27319;50.306;18.926;2023-03-12T09:04:17;97838.72;;;1.50;71.48
41624;BME280;27319;50.306;18.926;2023-03-12T09:07:37;97842.06;;;1.63;71.14
41624;BME280;27319;50.306;18.926;2023-03-12T09:11:38;97824.97;;;1.78;71.78
41624;BME280;27319;50.306;18.926;2023-03-12T09:15:40;97836.00;;;1.94;71.87
41624;BME280;27319;50.306;18.926;2023-03-12T09:19:41;97826.94;;;2.08;70.55
41624;BME280;27319;50.306;18.926;2023-03-12T09:23:42;97826.75;;;1.89;71.02
41624;BME280;27319;50.306;18.926;2023-03-12T09:27:43;97827.53;;;2.11;71.00
41624;BME280;27319;50.306;18.926;2023-03-12T09:31:44;97831.53;;;2.26;71.37
41624;BME280;27319;50.306;18.926;2023-03-12T09:35:44;97822.88;;;2.24;71.08
41624;BME280;27319;50.306;18.926;2023-03-12T09:39:47;97829.34;;;2.31;72.05
41624;BME280;27319;50.306;18.926;2023-03-12T09:47:34;97828.06;;;2.26;71.32
41624;BME280;27319;50.306;18.926;2023-03-12T09:51:22;97830.78;;;2.35;70.98
41624;BME280;27319;50.306;18.926;2023-03-12T09:54:45;97834.06;;;2.28;71.70
41624;BME280;27319;50.306;18.926;2023-03-12T09:57:50;97826.00;;;2.29;70.97
41624;BME280;27319;50.306;18.926;2023-03-12T10:01:03;97829.03;;;2.25;70.66
41624;BME280;27319;50.306;18.926;2023-03-12T10:04:45;97835.09;;;2.36;70.08
41624;BME280;27319;50.306;18.926;2023-03-12T10:16:37;97827.56;;;2.52;68.41
41624;BME280;27319;50.306;18.926;2023-03-12T10:24:37;97830.72;;;2.87;67.89
41624;BME280;27319;50.306;18.926;2023-03-12T10:28:20;97843.50;;;3.03;65.99
41624;BME280;27319;50.306;18.926;2023-03-12T10:32:25;97840.53;;;2.96;66.64
41624;BME280;27319;50.306;18.926;2023-03-12T10:35:28;97837.44;;;2.91;68.14
41624;BME280;27319;50.306;18.926;2023-03-12T10:38:52;97840.75;;;2.84;65.94
41624;BME280;27319;50.306;18.926;2023-03-12T10:42:53;97837.63;;;2.79;67.29
41624;BME280;27319;50.306;18.926;2023-03-12T10:46:40;97838.06;;;3.04;66.39
41624;BME280;27319;50.306;18.926;2023-03-12T10:50:21;97844.50;;;3.11;66.55
41624;BME280;27319;50.306;18.926;2023-03-12T10:53:43;97847.16;;;3.11;66.92
41624;BME280;27319;50.306;18.926;2023-03-12T10:57:43;97839.66;;;3.56;67.13
41624;BME280;27319;50.306;18.926;2023-03-12T11:01:46;97844.72;;;3.59;66.34
41624;BME280;27319;50.306;18.926;2023-03-12T11:05:46;97849.47;;;3.55;66.71
41624;BME280;27319;50.306;18.926;2023-03-12T11:09:51;97846.84;;;3.25;65.11
41624;BME280;27319;50.306;18.926;2023-03-12T11:13:34;97840.72;;;3.34;65.29
41624;BME280;27319;50.306;18.926;2023-03-12T11:17:39;97838.69;;;3.17;65.87
41624;BME280;27319;50.306;18.926;2023-03-12T11:21:52;97842.13;;;3.38;67.05
41624;BME280;27319;50.306;18.926;2023-03-12T11:25:49;97839.91;;;3.92;65.23
41624;BME280;27319;50.306;18.926;2023-03-12T11:29:29;97849.28;;;3.96;62.66
41624;BME280;27319;50.306;18.926;2023-03-12T11:33:29;97847.06;;;4.20;63.99
41624;BME280;27319;50.306;18.926;2023-03-12T11:37:14;97838.56;;;4.07;65.01
41624;BME280;27319;50.306;18.926;2023-03-12T12:03:38;97849.53;;;5.53;60.29
41624;BME280;27319;50.306;18.926;2023-03-12T12:07:30;97863.34;;;5.20;61.18
41624;BME280;27319;50.306;18.926;2023-03-12T12:22:52;97847.94;;;5.33;60.40
41624;BME280;27319;50.306;18.926;2023-03-12T12:41:14;97840.19;;;5.03;61.07
41624;BME280;27319;50.306;18.926;2023-03-12T12:45:13;97835.22;;;5.54;59.11
41624;BME280;27319;50.306;18.926;2023-03-12T12:49:14;97834.41;;;5.17;60.58
41624;BME280;27319;50.306;18.926;2023-03-12T12:52:20;97842.06;;;5.30;59.09
41624;BME280;27319;50.306;18.926;2023-03-12T12:55:29;97843.13;;;5.73;58.65
41624;BME280;27319;50.306;18.926;2023-03-12T13:01:43;97838.09;;;5.70;58.61
41624;BME280;27319;50.306;18.926;2023-03-12T13:05:04;97839.00;;;5.61;58.25
41624;BME280;27319;50.306;18.926;2023-03-12T13:27:23;97854.72;;;5.09;58.23
41624;BME280;27319;50.306;18.926;2023-03-12T13:47:04;97842.44;;;5.44;56.53
41624;BME280;27319;50.306;18.926;2023-03-12T13:50:16;97834.66;;;5.24;57.14
41624;BME280;27319;50.306;18.926;2023-03-12T13:53:41;97836.03;;;5.28;57.49
41624;BME280;27319;50.306;18.926;2023-03-12T13:58:05;97841.94;;;5.22;57.02
41624;BME280;27319;50.306;18.926;2023-03-12T14:02:11;97851.25;;;5.72;57.81
41624;BME280;27319;50.306;18.926;2023-03-12T14:06:12;97845.09;;;5.71;56.27
41624;BME280;27319;50.306;18.926;2023-03-12T14:10:24;97857.31;;;5.64;55.83
41624;BME280;27319;50.306;18.926;2023-03-12T14:14:35;97837.88;;;5.64;54.89
41624;BME280;27319;50.306;18.926;2023-03-12T14:17:42;97850.56;;;5.43;53.89
41624;BME280;27319;50.306;18.926;2023-03-12T14:21:06;97849.06;;;5.31;56.58
41624;BME280;27319;50.306;18.926;2023-03-12T14:29:26;97854.09;;;5.24;57.45
41624;BME280;27319;50.306;18.926;2023-03-12T14:32:58;97849.97;;;5.49;59.91
41624;BME280;27319;50.306;18.926;2023-03-12T14:37:01;97859.47;;;5.51;57.27
41624;BME280;27319;50.306;18.926;2023-03-12T14:41:07;97856.31;;;5.38;58.42
41624;BME280;27319;50.306;18.926;2023-03-12T14:45:11;97861.06;;;5.44;58.27
41624;BME280;27319;50.306;18.926;2023-03-12T14:49:07;97854.75;;;5.45;58.02
41624;BME280;27319;50.306;18.926;2023-03-12T14:52:32;97869.59;;;5.48;58.59
41624;BME280;27319;50.306;18.926;2023-03-12T14:56:33;97858.97;;;5.38;59.25
41624;BME280;27319;50.306;18.926;2023-03-12T15:00:43;97859.34;;;5.43;61.90
41624;BME280;27319;50.306;18.926;2023-03-12T15:04:44;97843.00;;;5.38;60.24
41624;BME280;27319;50.306;18.926;2023-03-12T15:08:44;97844.00;;;5.28;65.37
41624;BME280;27319;50.306;18.926;2023-03-12T15:12:45;97852.56;;;5.22;59.53
41624;BME280;27319;50.306;18.926;2023-03-12T15:16:46;97851.78;;;5.02;62.37
41624;BME280;27319;50.306;18.926;2023-03-12T15:20:47;97844.78;;;5.01;62.84
41624;BME280;27319;50.306;18.926;2023-03-12T15:24:48;97855.31;;;4.93;61.36
41624;BME280;27319;50.306;18.926;2023-03-12T15:28:55;97841.44;;;4.99;63.26
41624;BME280;27319;50.306;18.926;2023-03-12T15:36:27;97826.63;;;4.97;61.02
41624;BME280;27319;50.306;18.926;2023-03-12T15:39:49;97839.78;;;4.98;60.28
41624;BME280;27319;50.306;18.926;2023-03-12T15:43:29;97841.75;;;4.87;62.57
41624;BME280;27319;50.306;18.926;2023-03-12T15:46:31;97847.31;;;5.76;70.55
41624;BME280;27319;50.306;18.926;2023-03-12T15:49:34;97839.13;;;5.23;60.48
41624;BME280;27319;50.306;18.926;2023-03-12T15:56:31;97845.41;;;4.76;60.71
41624;BME280;27319;50.306;18.926;2023-03-12T15:59:32;97845.53;;;4.75;60.09
41624;BME280;27319;50.306;18.926;2023-03-12T16:03:33;97858.84;;;4.65;60.68
41624;BME280;27319;50.306;18.926;2023-03-12T16:07:14;97848.91;;;4.48;61.82
41624;BME280;27319;50.306;18.926;2023-03-12T16:10:17;97840.38;;;4.35;63.79
41624;BME280;27319;50.306;18.926;2023-03-12T16:13:21;97845.28;;;4.21;63.08
41624;BME280;27319;50.306;18.926;2023-03-12T16:16:42;97851.84;;;4.26;62.72
41624;BME280;27319;50.306;18.926;2023-03-12T16:20:10;97841.50;;;4.23;63.16
41624;BME280;27319;50.306;18.926;2023-03-12T16:24:10;97844.56;;;4.09;64.18
41624;BME280;27319;50.306;18.926;2023-03-12T16:28:12;97855.16;;;4.00;63.01
41624;BME280;27319;50.306;18.926;2023-03-12T16:32:15;97870.53;;;3.96;63.28
41624;BME280;27319;50.306;18.926;2023-03-12T16:36:16;97866.34;;;4.03;61.60
41624;BME280;27319;50.306;18.926;2023-03-12T16:40:16;97856.28;;;3.97;62.90
41624;BME280;27319;50.306;18.926;2023-03-12T16:44:18;97861.28;;;3.91;62.81
41624;BME280;27319;50.306;18.926;2023-03-12T16:48:21;97870.09;;;3.91;62.67
41624;BME280;27319;50.306;18.926;2023-03-12T16:52:19;97862.41;;;3.88;62.33
41624;BME280;27319;50.306;18.926;2023-03-12T16:55:24;97865.47;;;3.84;63.29
41624;BME280;27319;50.306;18.926;2023-03-12T16:58:46;97859.59;;;3.90;63.25
41624;BME280;27319;50.306;18.926;2023-03-12T17:02:47;97862.44;;;3.98;62.04
41624;BME280;27319;50.306;18.926;2023-03-12T17:06:48;97851.75;;;3.79;62.06
41624;BME280;27319;50.306;18.926;2023-03-12T17:10:48;97845.88;;;3.75;64.05
41624;BME280;27319;50.306;18.926;2023-03-12T17:14:49;97838.03;;;3.64;64.11
41624;BME280;27319;50.306;18.926;2023-03-12T17:18:49;97838.31;;;3.61;66.32
41624;BME280;27319;50.306;18.926;2023-03-12T17:22:51;97833.53;;;3.55;66.52
41624;BME280;27319;50.306;18.926;2023-03-12T17:26:51;97824.13;;;3.42;67.30
41624;BME280;27319;50.306;18.926;2023-03-12T17:30:52;97833.78;;;3.43;67.22
41624;BME280;27319;50.306;18.926;2023-03-12T17:34:56;97820.31;;;3.25;69.02
41624;BME280;27319;50.306;18.926;2023-03-12T17:38:35;97834.53;;;3.24;68.88
41624;BME280;27319;50.306;18.926;2023-03-12T17:41:35;97850.72;;;3.21;69.45
41624;BME280;27319;50.306;18.926;2023-03-12T17:44:38;97850.66;;;3.12;70.36
41624;BME280;27319;50.306;18.926;2023-03-12T17:47:59;97827.78;;;3.11;70.84
41624;BME280;27319;50.306;18.926;2023-03-12T17:52:00;97820.78;;;3.10;70.35
41624;BME280;27319;50.306;18.926;2023-03-12T17:56:01;97828.34;;;3.14;68.52
41624;BME280;27319;50.306;18.926;2023-03-12T18:00:02;97810.13;;;3.00;70.17
41624;BME280;27319;50.306;18.926;2023-03-12T18:03:42;97807.75;;;2.97;70.84
41624;BME280;27319;50.306;18.926;2023-03-12T18:07:45;97807.34;;;3.02;69.07
41624;BME280;27319;50.306;18.926;2023-03-12T18:11:45;97807.75;;;2.97;70.83
41624;BME280;27319;50.306;18.926;2023-03-12T18:15:49;97816.53;;;2.98;70.26
41624;BME280;27319;50.306;18.926;2023-03-12T18:19:49;97821.00;;;2.97;70.28
41624;BME280;27319;50.306;18.926;2023-03-12T18:23:50;97816.28;;;3.01;70.64
41624;BME280;27319;50.306;18.926;2023-03-12T18:27:51;97829.22;;;2.94;71.00
41624;BME280;27319;50.306;18.926;2023-03-12T18:31:52;97835.16;;;2.87;71.99
41624;BME280;27319;50.306;18.926;2023-03-12T18:35:52;97841.84;;;2.81;71.52
41624;BME280;27319;50.306;18.926;2023-03-12T18:39:53;97817.00;;;2.82;73.35
41624;BME280;27319;50.306;18.926;2023-03-12T18:43:54;97805.59;;;2.82;73.10
41624;BME280;27319;50.306;18.926;2023-03-12T18:47:54;97781.34;;;2.86;72.00
41624;BME280;27319;50.306;18.926;2023-03-12T18:51:55;97803.75;;;2.82;72.44
41624;BME280;27319;50.306;18.926;2023-03-12T18:55:57;97811.31;;;2.87;69.72
41624;BME280;27319;50.306;18.926;2023-03-12T18:59:57;97793.50;;;2.89;71.94
41624;BME280;27319;50.306;18.926;2023-03-12T19:03:58;97802.75;;;2.74;72.63
41624;BME280;27319;50.306;18.926;2023-03-12T19:07:59;97813.91;;;2.77;71.23
41624;BME280;27319;50.306;18.926;2023-03-12T19:12:00;97814.75;;;2.78;71.00
41624;BME280;27319;50.306;18.926;2023-03-12T19:16:02;97787.63;;;2.85;69.52
41624;BME280;27319;50.306;18.926;2023-03-12T19:20:02;97803.31;;;2.77;71.50
41624;BME280;27319;50.306;18.926;2023-03-12T19:24:03;97795.38;;;2.77;71.17
41624;BME280;27319;50.306;18.926;2023-03-12T19:28:04;97807.13;;;2.84;70.31
41624;BME280;27319;50.306;18.926;2023-03-12T19:32:04;97807.38;;;2.81;71.23
41624;BME280;27319;50.306;18.926;2023-03-12T19:36:05;97801.63;;;2.76;71.44
41624;BME280;27319;50.306;18.926;2023-03-12T19:40:06;97809.00;;;2.73;69.95
41624;BME280;27319;50.306;18.926;2023-03-12T19:44:07;97809.97;;;2.92;68.44
41624;BME280;27319;50.306;18.926;2023-03-12T19:48:08;97799.69;;;2.78;69.64
41624;BME280;27319;50.306;18.926;2023-03-12T19:51:49;97799.44;;;2.81;70.65
41624;BME280;27319;50.306;18.926;2023-03-12T19:54:50;97791.09;;;2.86;69.38
41624;BME280;27319;50.306;18.926;2023-03-12T19:57:51;97791.97;;;2.96;67.64
41624;BME280;27319;50.306;18.926;2023-03-12T20:00:52;97778.28;;;2.91;67.66
41624;BME280;27319;50.306;18.926;2023-03-12T20:04:13;97778.56;;;2.88;69.34
41624;BME280;27319;50.306;18.926;2023-03-12T20:08:14;97763.78;;;2.85;69.16
41624;BME280;27319;50.306;18.926;2023-03-12T20:11:55;97773.56;;;2.94;66.82
41624;BME280;27319;50.306;18.926;2023-03-12T20:15:16;97763.81;;;2.95;68.28
41624;BME280;27319;50.306;18.926;2023-03-12T20:19:17;97742.81;;;2.82;70.48
41624;BME280;27319;50.306;18.926;2023-03-12T20:23:17;97742.69;;;2.84;68.20
41624;BME280;27319;50.306;18.926;2023-03-12T20:27:19;97733.88;;;2.83;69.73
41624;BME280;27319;50.306;18.926;2023-03-12T20:31:28;97731.25;;;2.83;70.00
41624;BME280;27319;50.306;18.926;2023-03-12T20:35:29;97720.72;;;3.02;67.05
41624;BME280;27319;50.306;18.926;2023-03-12T20:39:30;97717.31;;;2.91;66.95
41624;BME280;27319;50.306;18.926;2023-03-12T20:43:31;97720.28;;;2.97;67.14